2019 Ballard Cup Series III
Aug 5, 2019

Sloop Tavern Yacht Club

Committee Boat - Grayling

Race 3
R1 R2 R3 R4 R5 Series Overall

Class: 1 - Non-Flying Sails Division - Start: 18:15:00 - Course: NMWN - Distance: 5.114      

Boat Name SailNo Boat Type Skipper Rating Club Start Finish Elapsed Corrected BCE Notes Place OA
Whistling Swan 69494 Islander 36-1 Bill Pirrie 174 STYC 18:15:00 19:27:16 1:12:16 0:57:26 0:00:00 1 25
Amoretto 79104 Jeanneau Arcada Martin Bower 204 STYC 18:15:00 19:33:02 1:18:02 1:00:39 0:03:13 2 33
Stardust 79977 Hunter Legend 37.5 Tito Soto 153 STYC 18:15:00 19:35:21 1:20:21 1:07:19 0:09:53 3 43
Gusto 44119 Swan 441 Beth Miller 108 STYC 18:15:00 19:34:21 1:19:21 1:10:09 0:12:43 4 47
White Rabbit 69366 J/40 Bradley Music 105 SBYC 18:15:00 19:37:41 1:22:41 1:13:44 0:16:18 5 49
Midnigt Escape 2806 Kirby 25 Borge Ellingsen 204 STYC 18:15:00 19:55:17 1:40:17 1:22:54 0:25:28 6 53
Mangata 97971 Catalina 380 Steve Zeliadt 153 STYC 18:15:00 20:13:51 1:58:51 1:45:49 0:48:23 7 54
Blue Lullaby 391 Newport 28-2 John H Endresen 231 STYC 18:15:00 DNC 9 56
Flying Redhead 59285 Choate 27 Maxim Oustiougov 180 STYC 18:15:00 DNC 9 56
Frog Prints 79070 Dufr D 34 Tim Onders 192 STYC 18:15:00 DNC 9 56
No Ka Oi 15 J/80 Amy Deckelbaum 141 SSC 18:15:00 DNC 9 56
Wind Dancer 46489 Tartan 3800 Chris McMuldroch 153 STYC 18:15:00 DNC 9 56

Class: 2 - Flying Sails Division - Start: 18:20:00 - Course: NMWN - Distance: 5.114      

Boat Name SailNo Boat Type Skipper Rating Club Start Finish Elapsed Corrected BCE Notes Place OA
Rock Lobster 59306 San Juan 7.7 Trent Piepho 210 STYC 18:20:00 19:34:51 1:14:51 0:56:57 0:00:00 1 21
Aquavit 3242 If Dave And Jenn 285 Sloop Tavern/Cyc 18:20:00 19:42:58 1:22:58 0:58:41 0:01:44 2 28.5
Lady Too 59382 San Jaun 28 Damon Darley 201 STYC 18:20:00 19:37:01 1:17:01 0:59:53 0:02:56 3 31
Jubilee USA 61251 1984 C&C Landfall 35 David Golden 186 STYC 18:20:00 19:52:31 1:32:31 1:16:40 0:19:43 4 51
Sea Haven 930 Catalina 34 Cary Kaczowka 192 STYC/CYC 18:20:00 19:53:56 1:33:56 1:17:34 0:20:37 5 52
Airloom 69410 Baba 40-2 Tim Morgenroth 168 STYC 18:20:00 DNC 7 56
Water Street 1376 Cal 2-24 Mark Jackson 252 STYC 18:20:00 DNC 7 56

Class: 3 - Flying Sails Division - Start: 18:25:00 - Course: NMWN - Distance: 5.114      

Boat Name SailNo Boat Type Skipper Rating Club Start Finish Elapsed Corrected BCE Notes Place OA
More Uff Da 26 Moore 24-1 Ben Braden 168 STYC 18:25:00 19:28:45 1:03:45 0:49:26 0:00:00 1 1
Wizard 40427 J/27 Leo S Morales 135 WYC 18:25:00 19:29:26 1:04:26 0:52:56 0:03:30 2 6
Perfectly Strange 87210 Pocket Rocket 22-1 Paul Kalina 174 STYC 18:25:00 19:37:15 1:12:15 0:57:25 0:07:59 3 24
Zap 59269 Zap 26 Don Sarin 147 STYC 18:25:00 19:40:07 1:15:07 1:02:35 0:13:09 4 35
Norn 49450 Santa Cruz 27 Mitch Leupold 150 STYC 18:25:00 RET 5 55
La Lucha Moore 131 Moore 24 Joe Grieser 168 STYC 18:25:00 DNC 6 56
Morphine 72 Moore 24 Nick Farley 168 STYC 18:25:00 DNC 6 56
The Banana Stand 104 Santa Cruz 27 Adam Yuret 162 STYC 18:25:00 DNC 6 56

Class: 4 - Flying Sails Division - Start: 18:30:00 - Course: NMWN - Distance: 5.114      

Boat Name SailNo Boat Type Skipper Rating Club Start Finish Elapsed Corrected BCE Notes Place OA
Elixir 29 A 101 Jarred Swalwell 150 STYC 18:30:00 19:36:03 1:06:03 0:53:16 0:00:00 1 7
Gaucho 68 Ross 930 John Cahill 114 CYC 18:30:00 19:33:25 1:03:25 0:53:42 0:00:26 2 8
Wings 244 J/29 Jim Moynihan 120 STYC 18:30:00 19:35:13 1:05:13 0:54:59 0:01:43 3 12
Ruby 87603 J/29 Mh John Kazaras 120 STYC 18:30:00 19:35:55 1:05:55 0:55:41 0:02:25 4 17
Outlaw 77108 J/30 Cindy Gossett 138 STYC 18:30:00 19:38:06 1:08:06 0:56:20 0:03:04 5 19
Kowloon 17 Olson 911 Ken Chin 129 STYC 18:30:00 19:42:25 1:12:25 1:01:25 0:08:09 6 34
Velella 150 Wylie 31 Ryan Helling 165 STYC 18:30:00 19:49:46 1:19:46 1:05:42 0:12:26 7 39
20degrees 18602 Wyle Duncan Chalmers 132 STYC 18:30:00 19:47:04 1:17:04 1:05:49 0:12:33 8 41
Vela Volta 61314 Bavaria Match 35 Steve Kirsch 117 STYC 18:30:00 19:45:58 1:15:58 1:06:00 0:12:44 9 42
Mata Hari 1660 Catalina 36 Mkii Jeff Blyth 147 STYC 18:30:00 19:56:05 1:26:05 1:13:33 0:20:17 10 48
Celtic Breeze 233 Ericson 35 Mk3 Glenn Knitter 159 STYC 18:30:00 DNC 12 56
Kamoon Na Jeanneau Mike Taft 162 STYC 18:30:00 DNC 12 56
Grayling 7 Q Class Duke H Phan 144 STYC 18:30:00 CB 12 56

Class: 5 - Flying Sails Division - Start: 18:35:00 - Course: NMWN - Distance: 5.114      

Boat Name SailNo Boat Type Skipper Rating Club Start Finish Elapsed Corrected BCE Notes Place OA
Crazy Ivan USA-151 J/80 Bryan Rhodes 129 STYC 18:35:00 19:40:27 1:05:27 0:54:27 0:00:00 1 10.5
Jolly Green 1 J/80 Mike Poole - Seattle Sailing Club 129 SSC 18:35:00 19:41:00 1:06:00 0:55:00 0:00:33 2 13.5
Underdog 85 J/80 Dulnath Wijayratne 129 SSC 18:35:00 19:45:57 1:10:57 0:59:57 0:05:30 3 32
Namaste 257 J/80 John Lueders 129 SSC 18:35:00 19:51:21 1:16:21 1:05:21 0:10:54 4 37
Reckless 296 J/80 Sezer Emre 129 STYC 18:35:00 19:51:40 1:16:40 1:05:40 0:11:13 5 38
Uproar 41 J/80 Steve Neidhardt - Seattle Sailing Club 129 SSC 18:35:00 19:54:05 1:19:05 1:08:05 0:13:38 6 44
Fearful Symmetry 331 J/80 Elise Sivilay 129 SSC 18:35:00 19:54:56 1:19:56 1:08:56 0:14:29 7 46
Stellar J 546 J/80 Andreas Wieberneit 129 SSC 18:35:00 20:00:46 1:25:46 1:14:46 0:20:19 8 50
Taj Mahal 445 J/80 Ian Wong 129 SSC 18:35:00 DNC 10 56

Class: 6 - Flying Sails Division - Start: 18:40:00 - Course: NMWN - Distance: 5.114      

Boat Name SailNo Boat Type Skipper Rating Club Start Finish Elapsed Corrected BCE Notes Place OA
Poke & Destroy 69061 Evelyn 32-2 Alex P Simanis 93 STYC 18:40:00 19:38:36 0:58:36 0:50:40 0:00:00 1 2
Corvo 105 475 J/105 Tom Kerr 93 STYC 18:40:00 19:40:26 1:00:26 0:52:30 0:01:50 2 5
Moose Unknown 89 J/105 John Aitchison 93 STYC 18:40:00 19:42:56 1:02:56 0:55:00 0:04:20 3 13.5
Poisson Soluble 69351 Hobie 33 Robert Horsley 96 STYC 18:40:00 19:43:39 1:03:39 0:55:28 0:04:48 4 16
Liftoff 621 J/105 Philippe Le Mouel 93 STYC 18:40:00 19:44:36 1:04:36 0:56:40 0:06:00 5 20
Creative 51911 J/105 Steve Summers - Seattle Sailing Club 93 SSC 18:40:00 19:45:37 1:05:37 0:57:41 0:07:01 6 27
Puff 115 J/105 Ryan Porter 93 SSC 18:40:00 19:51:34 1:11:34 1:03:38 0:12:58 7 36
Cyrano 253 J/105 Seattle Sailing Club 99 SSC 18:40:00 19:54:11 1:14:11 1:05:45 0:15:05 8 40
Dazed And Confused 129 Olson 30 Barry Crist 99 None Yet 18:40:00 19:56:52 1:16:52 1:08:26 0:17:46 Rating Pending 9 45
Avalanche 495 J/105 Jeremy Boynes 93 STYC 18:40:00 DNC 11 56
Insubordination 212 J/105 Buckey 93 CYC 18:40:00 DNC 11 56
Latitude 60680 Jeanneau 409 Bill Gibson 93 STYC 18:40:00 DNC 11 56
Paladin 412 J/105 Phil Bylsma - Seattle Sailing Club 93 SSC 18:40:00 DNC 11 56
Peer Gynt 235 J/105 Paul Viola 93 STYC 18:40:00 DNC 11 56

Class: 7 - Flying Sails Division - Start: 18:45:00 - Course: NMWN - Distance: 5.114      

Boat Name SailNo Boat Type Skipper Rating Club Start Finish Elapsed Corrected BCE Notes Place OA
Nefarous USA 53 Farr 30 Dan Randolph 54 STYC 18:45:00 19:40:58 0:55:58 0:51:22 0:00:00 1 3
Project Mayhem USA 64 Farr 30 Grady Morgan 54 SYC 18:45:00 19:41:51 0:56:51 0:52:15 0:00:53 2 4
Different Drummer 52804 Wauqueiz Centurion 40s Charles Hill 81 STYC 18:45:00 19:45:53 1:00:53 0:53:59 0:02:37 3 9
Freja RSA 2 Aerodyne 43 Jonathan Cruse 18 STYC 18:45:00 19:40:59 0:55:59 0:54:27 0:03:05 4 10.5
Tachyon 36000 Farr 39 C/R Jack Yinger 18 CYC 18:45:00 19:41:49 0:56:49 0:55:17 0:03:55 5 15
Those Guys 18155 J/35 Jenny Heins 72 STYC 18:45:00 19:47:14 1:02:14 0:56:06 0:04:44 6 18
Eclipse 256 J/109-2 Fraser 69 STYC 18:45:00 19:47:53 1:02:53 0:57:00 0:05:38 7 22
Shada 44 J/109 Jerry Woodfield 69 CYC 18:45:00 19:47:58 1:02:58 0:57:05 0:05:43 8 23
Tantivy 248 J/109 Stuart Burnell 69 CYC 18:45:00 19:48:25 1:03:25 0:57:32 0:06:10 9 26
Bat Out Of Hell USA 55 Farr 30 Lance Staughton 54 STYC 18:45:00 19:48:17 1:03:17 0:58:41 0:07:19 10 28.5
Re-Quest 18266 Express 37 Alex Wetmore & Kerry Billingham 72 STYC 18:45:00 19:51:00 1:06:00 0:59:52 0:08:30 11 30
Lodos 171 J/109 Tolga Cezik 69 STYC/CYC 18:45:00 RET 12 55
Escape 69160 Corsair F -27 Yury Palatnikov 79 Styc/Nwma 18:45:00 DNF 12 55
Artemis 97703 Andrews 53 Tom Muir -18 STYC 18:45:00 DNC 13 56
Lapa 309 J/109 Michael Campbell 69 STYC 18:45:00 DNC 13 56

STYC scoring (Thu, Aug 8, 2019 - 06:48:14 ver)